Blackville, South Carolina
Current Conditions -  °F | °C
As of 3:15 AM on Friday 19 Dec 2014 (Local Time) from KBNL Reporting Station
NA  
Wind Chill:   Ceiling: NA
Heat Index:   Visibility: NA
Dew Point:   Wind: 0mph
Humidity: 93%   Direction: NA
Pressure: 30.11"   Gusts: NA
Location:  33.36°N, 81.27°W
Report Text: KBNL 190815Z AUTO 00000KT 04/03 A3011 RMK AO2
Loading
Personal Weather Stations






























Interactive Weather Map New forecast layout! Learn more

10-Day Weather Forecast

Advertisements
Track Severe Weather on mobile